Time;durP1;ratioP1;P1;durP2;ratioP2;P2;SDS_P1;SDS_P2;PMS_P1;PMS_P2;Temp;Humidity;BMP_temperature;BMP_pressure;BME280_temperature;BME280_humidity;BME280_pressure;Samples;Min_cycle;Max_cycle;Signal;HPM_P1;HPM_P2
2023/01/03 00:01:44;;;;;;;;;;;;;;;;;;5097699;28;19915;-69
2023/01/03 00:04:10;;;;;;;;;;;;;;;;;;5097605;28;19915;-69
2023/01/03 00:06:36;;;;;;;;;;;;;;;;;;5097202;28;19934;-69
2023/01/03 00:09:02;;;;;;;;;;;;;;;;;;5096244;28;19908;-69
2023/01/03 00:14:12;;;;;;;;;;;;;;;;;;5096884;28;20395;-67
2023/01/03 00:16:38;;;;;;;;;;;;;;;;;;5097298;28;19934;-68
2023/01/03 00:19:04;;;;;;;;;;;;;;;;;;5097578;28;19908;-68
2023/01/03 00:21:30;;;;;;;;;;;;;;;;;;5096893;28;20441;-69
2023/01/03 00:23:56;;;;;;;;;;;;;;;;;;5097143;28;20372;-68
2023/01/03 00:26:22;;;;;;;;;;;;;;;;;;5097034;28;20408;-68
2023/01/03 00:28:48;;;;;;;;;;;;;;;;;;5097122;28;20375;-68
2023/01/03 00:31:14;;;;;;;;;;;;;;;;;;5097572;28;19923;-68
2023/01/03 00:33:40;;;;;;;;;;;;;;;;;;5095334;28;19961;-69
2023/01/03 00:36:06;;;;;;;;;;;;;;;;;;5095702;28;19994;-68
2023/01/03 00:38:32;;;;;;;;;;;;;;;;;;5096927;28;19908;-67
2023/01/03 00:40:57;;;;;;;;;;;;;;;;;;5096531;28;19962;-69
2023/01/03 00:43:29;;;;;;;;;;;;;;;;;;5095533;28;19914;-68
2023/01/03 00:45:55;;;;;;;;;;;;;;;;;;5096839;28;20315;-68
2023/01/03 00:48:21;;;;;;;;;;;;;;;;;;5096428;28;19908;-69
2023/01/03 00:50:47;;;;;;;;;;;;;;;;;;5096605;28;19939;-68
2023/01/03 00:53:13;;;;;;;;;;;;;;;;;;5096893;28;20371;-68
2023/01/03 00:55:39;;;;;;;;;;;;;;;;;;5096171;28;19916;-68
2023/01/03 00:58:05;;;;;;;;;;;;;;;;;;5097167;28;20408;-68
2023/01/03 01:00:31;;;;;;;;;;;;;;;;;;5096487;28;20359;-68
2023/01/03 01:02:57;;;;;;;;;;;;;;;;;;5096155;28;19908;-68
2023/01/03 01:05:23;;;;;;;;;;;;;;;;;;5095163;28;19908;-68
2023/01/03 01:07:49;;;;;;;;;;;;;;;;;;5096421;28;19940;-68
2023/01/03 01:10:18;;;;;;;;;;;;;;;;;;5095278;28;19930;-68
2023/01/03 01:12:44;;;;;;;;;;;;;;;;;;5096297;28;19943;-69
2023/01/03 01:15:10;;;;;;;;;;;;;;;;;;5096123;28;19916;-68
2023/01/03 01:17:36;;;;;;;;;;;;;;;;;;5094540;28;19908;-67
2023/01/03 01:20:02;;;;;;;;;;;;;;;;;;5096164;28;20006;-68
2023/01/03 01:22:28;;;;;;;;;;;;;;;;;;5095795;28;19912;-68
2023/01/03 01:24:53;;;;;;;;;;;;;;;;;;5096095;28;19908;-68
2023/01/03 01:27:19;;;;;;;;;;;;;;;;;;5096019;28;20379;-68
2023/01/03 01:29:45;;;;;;;;;;;;;;;;;;5094260;28;20356;-69
2023/01/03 01:32:11;;;;;;;;;;;;;;;;;;5096068;28;19908;-68
2023/01/03 01:34:37;;;;;;;;;;;;;;;;;;5095819;28;19920;-68
2023/01/03 01:37:03;;;;;;;;;;;;;;;;;;5095712;28;19908;-68
2023/01/03 01:39:29;;;;;;;;;;;;;;;;;;5094540;28;20375;-68
2023/01/03 01:44:40;;;;;;;;;;;;;;;;;;5095294;28;19915;-69
2023/01/03 01:47:06;;;;;;;;;;;;;;;;;;5095604;28;19908;-68
2023/01/03 01:49:31;;;;;;;;;;;;;;;;;;5094289;28;19951;-68
2023/01/03 01:51:57;;;;;;;;;;;;;;;;;;5095199;28;19923;-68
2023/01/03 01:54:23;;;;;;;;;;;;;;;;;;5095467;28;20015;-68
2023/01/03 01:56:49;;;;;;;;;;;;;;;;;;5095656;28;20360;-69
2023/01/03 01:59:15;;;;;;;;;;;;;;;;;;5093743;28;19908;-70
2023/01/03 02:01:41;;;;;;;;;;;;;;;;;;5095574;28;19912;-69
2023/01/03 02:04:07;;;;;;;;;;;;;;;;;;5094060;28;19940;-69
2023/01/03 02:06:33;;;;;;;;;;;;;;;;;;5094954;28;19916;-68
2023/01/03 02:08:59;;;;;;;;;;;;;;;;;;5095362;28;20352;-68
2023/01/03 02:11:25;;;;;;;;;;;;;;;;;;5093853;28;19989;-68
2023/01/03 02:13:51;;;;;;;;;;;;;;;;;;5093431;28;19915;-68
2023/01/03 02:16:17;;;;;;;;;;;;;;;;;;5095367;28;19912;-68
2023/01/03 02:18:43;;;;;;;;;;;;;;;;;;5093664;28;19908;-68
2023/01/03 02:21:09;;;;;;;;;;;;;;;;;;5093595;28;19915;-68
2023/01/03 02:23:35;;;;;;;;;;;;;;;;;;5094730;28;19912;-68
2023/01/03 02:26:01;;;;;;;;;;;;;;;;;;5094481;28;19931;-68
2023/01/03 02:28:27;;;;;;;;;;;;;;;;;;5094871;28;19988;-68
2023/01/03 02:30:52;;;;;;;;;;;;;;;;;;5094791;28;20310;-68
2023/01/03 02:33:18;;;;;;;;;;;;;;;;;;5093019;28;19961;-68
2023/01/03 02:35:44;;;;;;;;;;;;;;;;;;5094730;28;20006;-69
2023/01/03 02:38:10;;;;;;;;;;;;;;;;;;5094817;28;19908;-68
2023/01/03 02:40:36;;;;;;;;;;;;;;;;;;5094339;28;19915;-69
2023/01/03 02:43:04;;;;;;;;;;;;;;;;;;5095203;28;19915;-68
2023/01/03 02:45:30;;;;;;;;;;;;;;;;;;5094571;28;20406;-68
2023/01/03 02:47:56;;;;;;;;;;;;;;;;;;5094102;28;19999;-67
2023/01/03 02:50:22;;;;;;;;;;;;;;;;;;5094388;28;19921;-68
2023/01/03 02:52:48;;;;;;;;;;;;;;;;;;5094273;28;19932;-68
2023/01/03 02:55:14;;;;;;;;;;;;;;;;;;5093964;28;19916;-68
2023/01/03 02:57:40;;;;;;;;;;;;;;;;;;5093109;28;20425;-68
2023/01/03 03:00:07;;;;;;;;;;;;;;;;;;5094332;28;19908;-68
2023/01/03 03:02:33;;;;;;;;;;;;;;;;;;5094003;28;20280;-68
2023/01/03 03:04:58;;;;;;;;;;;;;;;;;;5094705;28;19909;-67
2023/01/03 03:07:24;;;;;;;;;;;;;;;;;;5094252;28;19944;-68
2023/01/03 03:15:21;;;;;;;;;;;;;;;;;;5093870;28;19977;-69
2023/01/03 03:17:47;;;;;;;;;;;;;;;;;;5094079;28;19908;-67
2023/01/03 03:25:42;;;;;;;;;;;;;;;;;;5094272;28;19915;-68
2023/01/03 03:30:53;;;;;;;;;;;;;;;;;;5093596;28;19930;-68
2023/01/03 03:33:18;;;;;;;;;;;;;;;;;;5092635;28;20010;-68
2023/01/03 03:35:44;;;;;;;;;;;;;;;;;;5098322;28;19916;-68
2023/01/03 03:38:10;;;;;;;;;;;;;;;;;;5097727;28;19908;-68
2023/01/03 03:46:06;;;;;;;;;;;;;;;;;;5098268;28;19915;-68
2023/01/03 03:49:36;;;;;;;;;;;;;;;;;;5096663;28;19908;-68
2023/01/03 03:51:17;;;;;;;;;;;;;;;;;;5097143;28;19920;-68
2023/01/03 03:53:43;;;;;;;;;;;;;;;;;;5098103;28;20360;-68
2023/01/03 03:56:09;;;;;;;;;;;;;;;;;;5096466;28;19913;-68
2023/01/03 03:58:35;;;;;;;;;;;;;;;;;;5096103;28;19908;-67
2023/01/03 04:01:01;;;;;;;;;;;;;;;;;;5097711;28;19908;-68
2023/01/03 04:03:27;;;;;;;;;;;;;;;;;;5097630;28;19908;-67
2023/01/03 04:05:53;;;;;;;;;;;;;;;;;;5097310;28;19960;-68
2023/01/03 04:08:19;;;;;;;;;;;;;;;;;;5097777;28;19955;-69
2023/01/03 04:10:45;;;;;;;;;;;;;;;;;;5097507;28;19908;-69
2023/01/03 04:13:11;;;;;;;;;;;;;;;;;;5097009;28;19908;-68
2023/01/03 04:15:37;;;;;;;;;;;;;;;;;;5097290;28;19916;-68
2023/01/03 04:18:03;;;;;;;;;;;;;;;;;;5097349;28;20045;-68
2023/01/03 04:20:29;;;;;;;;;;;;;;;;;;5095900;28;19934;-68
2023/01/03 04:22:55;;;;;;;;;;;;;;;;;;5095921;28;19909;-68
2023/01/03 04:25:20;;;;;;;;;;;;;;;;;;5095612;28;19955;-68
2023/01/03 04:27:46;;;;;;;;;;;;;;;;;;5097211;28;19908;-70
2023/01/03 04:30:12;;;;;;;;;;;;;;;;;;5097257;28;19908;-68
2023/01/03 04:32:38;;;;;;;;;;;;;;;;;;5096689;28;19916;-67
2023/01/03 04:35:04;;;;;;;;;;;;;;;;;;5095657;28;19963;-67
2023/01/03 04:37:30;;;;;;;;;;;;;;;;;;5097053;28;19908;-68
2023/01/03 04:39:56;;;;;;;;;;;;;;;;;;5096578;28;19915;-68
2023/01/03 04:45:07;;;;;;;;;;;;;;;;;;5096841;28;19930;-68
2023/01/03 04:47:33;;;;;;;;;;;;;;;;;;5096363;28;19908;-68
2023/01/03 04:49:58;;;;;;;;;;;;;;;;;;5096923;28;19908;-69
2023/01/03 04:52:24;;;;;;;;;;;;;;;;;;5096732;28;20265;-68
2023/01/03 04:54:50;;;;;;;;;;;;;;;;;;5096243;28;19916;-69
2023/01/03 04:57:16;;;;;;;;;;;;;;;;;;5096668;28;19953;-69
2023/01/03 04:59:42;;;;;;;;;;;;;;;;;;5096731;28;19909;-69
2023/01/03 05:02:08;;;;;;;;;;;;;;;;;;5096301;28;20360;-67
2023/01/03 05:04:34;;;;;;;;;;;;;;;;;;5096506;28;19999;-68
2023/01/03 05:07:00;;;;;;;;;;;;;;;;;;5096530;28;20411;-67
2023/01/03 05:09:26;;;;;;;;;;;;;;;;;;5094673;28;19908;-68
2023/01/03 05:11:52;;;;;;;;;;;;;;;;;;5096328;28;19923;-68
2023/01/03 05:14:18;;;;;;;;;;;;;;;;;;5096418;28;19920;-67
2023/01/03 05:16:44;;;;;;;;;;;;;;;;;;5095936;28;20272;-68
2023/01/03 05:19:10;;;;;;;;;;;;;;;;;;5096277;28;20410;-69
2023/01/03 05:27:05;;;;;;;;;;;;;;;;;;5096232;28;19914;-70
2023/01/03 05:29:31;;;;;;;;;;;;;;;;;;5095815;28;19908;-68
2023/01/03 05:31:57;;;;;;;;;;;;;;;;;;5096213;28;19916;-70
2023/01/03 05:34:23;;;;;;;;;;;;;;;;;;5095892;28;19919;-67
2023/01/03 05:36:49;;;;;;;;;;;;;;;;;;5095616;28;19912;-68
2023/01/03 05:39:15;;;;;;;;;;;;;;;;;;5095828;28;19915;-68
2023/01/03 05:41:59;;;;;;;;;;;;;;;;;;5095763;28;19908;-68
2023/01/03 05:44:25;;;;;;;;;;;;;;;;;;5095609;28;20272;-68
2023/01/03 05:46:51;;;;;;;;;;;;;;;;;;5095723;28;19908;-68
2023/01/03 05:49:17;;;;;;;;;;;;;;;;;;5095638;28;19908;-69
2023/01/03 05:51:43;;;;;;;;;;;;;;;;;;5093756;28;19916;-68
2023/01/03 05:54:09;;;;;;;;;;;;;;;;;;5095499;28;19934;-68
2023/01/03 05:56:35;;;;;;;;;;;;;;;;;;5095007;28;19967;-67
2023/01/03 05:59:01;;;;;;;;;;;;;;;;;;5094976;28;19909;-69
2023/01/03 06:01:30;;;;;;;;;;;;;;;;;;5095381;28;19908;-67
2023/01/03 06:03:56;;;;;;;;;;;;;;;;;;5093673;28;19970;-67
2023/01/03 06:06:22;;;;;;;;;;;;;;;;;;5095319;28;20356;-67
2023/01/03 06:08:48;;;;;;;;;;;;;;;;;;5095251;28;19965;-67
2023/01/03 06:11:14;;;;;;;;;;;;;;;;;;5094822;28;19908;-67
2023/01/03 06:13:40;;;;;;;;;;;;;;;;;;5095173;28;19908;-67
2023/01/03 06:18:50;;;;;;;;;;;;;;;;;;5094678;28;19915;-69
2023/01/03 06:21:16;;;;;;;;;;;;;;;;;;5094982;28;19908;-68
2023/01/03 06:23:44;;;;;;;;;;;;;;;;;;5095152;28;19908;-68
2023/01/03 06:26:10;;;;;;;;;;;;;;;;;;5094560;28;19912;-68
2023/01/03 06:28:36;;;;;;;;;;;;;;;;;;5094870;28;19912;-67
2023/01/03 06:31:02;;;;;;;;;;;;;;;;;;5094820;28;19908;-68
2023/01/03 06:33:28;;;;;;;;;;;;;;;;;;5094447;28;19919;-68
2023/01/03 06:35:53;;;;;;;;;;;;;;;;;;5094849;28;19923;-67
2023/01/03 06:38:19;;;;;;;;;;;;;;;;;;5094736;28;19958;-68
2023/01/03 06:40:45;;;;;;;;;;;;;;;;;;5093068;28;19908;-69
2023/01/03 06:43:11;;;;;;;;;;;;;;;;;;5093319;28;19908;-68
2023/01/03 06:53:51;;;;;;;;;;;;;;;;;;5093975;28;20343;-68
2023/01/03 06:56:17;;;;;;;;;;;;;;;;;;5094434;28;19955;-68
2023/01/03 06:58:43;;;;;;;;;;;;;;;;;;5093169;28;19954;-68
2023/01/03 07:01:09;;;;;;;;;;;;;;;;;;5093807;28;19908;-69
2023/01/03 07:03:35;;;;;;;;;;;;;;;;;;5094326;28;20276;-68
2023/01/03 07:06:01;;;;;;;;;;;;;;;;;;5094239;28;20285;-68
2023/01/03 07:08:27;;;;;;;;;;;;;;;;;;5093008;28;19916;-67
2023/01/03 07:10:53;;;;;;;;;;;;;;;;;;5092949;28;20013;-68
2023/01/03 07:16:03;;;;;;;;;;;;;;;;;;5093714;28;20360;-68
2023/01/03 07:18:29;;;;;;;;;;;;;;;;;;5094056;28;19909;-68
2023/01/03 07:20:55;;;;;;;;;;;;;;;;;;5092844;28;20284;-68
2023/01/03 07:23:21;;;;;;;;;;;;;;;;;;5093563;28;20268;-68
2023/01/03 07:25:47;;;;;;;;;;;;;;;;;;5094048;28;19909;-68
2023/01/03 07:28:13;;;;;;;;;;;;;;;;;;5093608;28;19908;-68
2023/01/03 07:30:39;;;;;;;;;;;;;;;;;;5094125;28;19915;-69
2023/01/03 07:33:05;;;;;;;;;;;;;;;;;;5093919;28;19908;-69
2023/01/03 07:35:31;;;;;;;;;;;;;;;;;;5093631;28;20426;-68
2023/01/03 07:37:57;;;;;;;;;;;;;;;;;;5094165;28;19915;-69
2023/01/03 07:40:23;;;;;;;;;;;;;;;;;;5092604;28;19909;-69
2023/01/03 07:45:34;;;;;;;;;;;;;;;;;;5093887;28;19962;-69
2023/01/03 07:48:00;;;;;;;;;;;;;;;;;;5093791;28;19908;-69
2023/01/03 07:50:26;;;;;;;;;;;;;;;;;;5092108;28;19995;-69
2023/01/03 07:52:52;;;;;;;;;;;;;;;;;;5093582;28;20075;-70
2023/01/03 07:55:18;;;;;;;;;;;;;;;;;;5093714;28;20292;-69
2023/01/03 07:57:43;;;;;;;;;;;;;;;;;;5093607;28;20375;-69
2023/01/03 08:00:09;;;;;;;;;;;;;;;;;;5093675;28;19924;-69
2023/01/03 08:02:35;;;;;;;;;;;;;;;;;;5093557;28;19953;-69
2023/01/03 08:05:01;;;;;;;;;;;;;;;;;;5093449;28;20280;-69
2023/01/03 08:07:27;;;;;;;;;;;;;;;;;;5092325;28;20280;-68
2023/01/03 08:15:22;;;;;;;;;;;;;;;;;;5093669;28;20489;-69
2023/01/03 08:17:48;;;;;;;;;;;;;;;;;;5093176;28;19999;-69
2023/01/03 08:20:14;;;;;;;;;;;;;;;;;;5093710;28;19909;-69
2023/01/03 08:22:40;;;;;;;;;;;;;;;;;;5097281;28;19934;-69
2023/01/03 08:25:06;;;;;;;;;;;;;;;;;;5096897;28;19915;-68
2023/01/03 08:27:32;;;;;;;;;;;;;;;;;;5097240;28;19936;-68
2023/01/03 08:29:58;;;;;;;;;;;;;;;;;;5097189;28;19912;-68
2023/01/03 08:32:24;;;;;;;;;;;;;;;;;;5095434;28;19915;-69
2023/01/03 08:34:50;;;;;;;;;;;;;;;;;;5097049;28;20014;-68
2023/01/03 08:37:15;;;;;;;;;;;;;;;;;;5097096;28;19908;-68
2023/01/03 08:39:41;;;;;;;;;;;;;;;;;;5096717;28;19912;-68
2023/01/03 08:42:07;;;;;;;;;;;;;;;;;;5095667;28;19912;-69
2023/01/03 08:44:34;;;;;;;;;;;;;;;;;;5095684;28;19915;-68
2023/01/03 08:47:00;;;;;;;;;;;;;;;;;;5096485;28;19947;-69
2023/01/03 08:49:26;;;;;;;;;;;;;;;;;;5097329;28;20343;-69
2023/01/03 08:51:52;;;;;;;;;;;;;;;;;;5096595;28;20036;-69
2023/01/03 08:54:18;;;;;;;;;;;;;;;;;;5096186;28;19920;-69
2023/01/03 08:56:43;;;;;;;;;;;;;;;;;;5096734;28;19915;-69
2023/01/03 08:59:09;;;;;;;;;;;;;;;;;;5096925;28;19908;-69
2023/01/03 09:01:35;;;;;;;;;;;;;;;;;;5094725;28;19958;-69
2023/01/03 09:04:03;;;;;;;;;;;;;;;;;;5095274;28;19908;-68
2023/01/03 09:06:29;;;;;;;;;;;;;;;;;;5096477;28;20383;-69
2023/01/03 09:08:55;;;;;;;;;;;;;;;;;;5096069;28;20321;-68
2023/01/03 09:11:21;;;;;;;;;;;;;;;;;;5096454;28;19969;-68
2023/01/03 09:13:47;;;;;;;;;;;;;;;;;;5095977;28;19908;-68
2023/01/03 09:16:15;;;;;;;;;;;;;;;;;;5096267;28;19923;-69
2023/01/03 09:18:41;;;;;;;;;;;;;;;;;;5095091;28;20042;-68
2023/01/03 09:21:07;;;;;;;;;;;;;;;;;;5095844;28;19921;-69
2023/01/03 09:23:33;;;;;;;;;;;;;;;;;;5096193;28;19909;-68
2023/01/03 09:25:59;;;;;;;;;;;;;;;;;;5094845;28;19908;-68
2023/01/03 09:28:24;;;;;;;;;;;;;;;;;;5095692;28;19915;-68
2023/01/03 09:30:50;;;;;;;;;;;;;;;;;;5095928;28;20448;-69
2023/01/03 09:33:16;;;;;;;;;;;;;;;;;;5095326;28;20372;-69
2023/01/03 09:35:42;;;;;;;;;;;;;;;;;;5095803;28;20364;-70
2023/01/03 09:38:09;;;;;;;;;;;;;;;;;;5095979;28;20321;-69
2023/01/03 09:40:34;;;;;;;;;;;;;;;;;;5094573;28;19909;-69
2023/01/03 09:43:12;;;;;;;;;;;;;;;;;;5095373;28;19908;-69
2023/01/03 09:45:38;;;;;;;;;;;;;;;;;;5094530;28;19988;-68
2023/01/03 09:48:04;;;;;;;;;;;;;;;;;;5094418;28;20353;-68
2023/01/03 09:50:30;;;;;;;;;;;;;;;;;;5093974;28;19908;-68
2023/01/03 10:03:55;;;;;;;;;;;;;;;;;;5095014;28;19953;-69
2023/01/03 10:06:21;;;;;;;;;;;;;;;;;;5094062;28;20305;-69
2023/01/03 10:08:46;;;;;;;;;;;;;;;;;;5095243;28;20003;-68
2023/01/03 10:11:12;;;;;;;;;;;;;;;;;;5095042;28;20272;-67
2023/01/03 10:13:38;;;;;;;;;;;;;;;;;;5093945;28;19919;-68
2023/01/03 10:16:04;;;;;;;;;;;;;;;;;;5095175;28;19916;-69
2023/01/03 10:18:30;;;;;;;;;;;;;;;;;;5094691;28;19991;-69
2023/01/03 10:20:56;;;;;;;;;;;;;;;;;;5095371;28;19908;-69
2023/01/03 10:23:22;;;;;;;;;;;;;;;;;;5094967;28;19908;-69
2023/01/03 10:25:48;;;;;;;;;;;;;;;;;;5094548;28;19918;-69
2023/01/03 10:28:14;;;;;;;;;;;;;;;;;;5095065;28;19954;-69
2023/01/03 10:30:40;;;;;;;;;;;;;;;;;;5094909;28;20016;-69
2023/01/03 10:33:06;;;;;;;;;;;;;;;;;;5093149;28;19958;-69
2023/01/03 10:35:32;;;;;;;;;;;;;;;;;;5094701;28;19920;-68
2023/01/03 10:37:58;;;;;;;;;;;;;;;;;;5094694;28;19959;-69
2023/01/03 10:40:24;;;;;;;;;;;;;;;;;;5093036;28;19908;-69
2023/01/03 10:42:54;;;;;;;;;;;;;;;;;;5094498;28;20012;-68
2023/01/03 10:45:20;;;;;;;;;;;;;;;;;;5094191;28;20307;-71
2023/01/03 10:47:46;;;;;;;;;;;;;;;;;;5094588;28;19909;-69
2023/01/03 10:50:11;;;;;;;;;;;;;;;;;;5094547;28;19912;-70
2023/01/03 10:52:37;;;;;;;;;;;;;;;;;;5093907;28;19931;-69
2023/01/03 10:55:03;;;;;;;;;;;;;;;;;;5093128;28;19924;-69
2023/01/03 10:57:29;;;;;;;;;;;;;;;;;;5094394;28;19915;-69
2023/01/03 10:59:55;;;;;;;;;;;;;;;;;;5092581;28;20010;-69
2023/01/03 11:02:22;;;;;;;;;;;;;;;;;;5094722;28;19908;-69
2023/01/03 11:04:48;;;;;;;;;;;;;;;;;;5093024;28;19962;-68
2023/01/03 11:07:14;;;;;;;;;;;;;;;;;;5093776;28;20330;-69
2023/01/03 11:09:40;;;;;;;;;;;;;;;;;;5094259;28;19954;-70
2023/01/03 11:12:06;;;;;;;;;;;;;;;;;;5094159;28;19912;-69
2023/01/03 11:14:32;;;;;;;;;;;;;;;;;;5092420;28;19959;-69
2023/01/03 11:16:58;;;;;;;;;;;;;;;;;;5094091;28;19912;-69
2023/01/03 11:19:24;;;;;;;;;;;;;;;;;;5094146;28;20321;-68
2023/01/03 11:21:50;;;;;;;;;;;;;;;;;;5093654;28;19912;-68
2023/01/03 11:24:16;;;;;;;;;;;;;;;;;;5092880;28;19939;-69
2023/01/03 11:26:42;;;;;;;;;;;;;;;;;;5093999;28;19908;-68
2023/01/03 11:29:08;;;;;;;;;;;;;;;;;;5093532;28;19916;-68
2023/01/03 11:31:34;;;;;;;;;;;;;;;;;;5092695;28;19908;-68
2023/01/03 11:33:59;;;;;;;;;;;;;;;;;;5093793;28;20321;-69
2023/01/03 11:36:25;;;;;;;;;;;;;;;;;;5093341;28;19912;-68
2023/01/03 11:38:51;;;;;;;;;;;;;;;;;;5092641;28;20014;-68
2023/01/03 11:41:17;;;;;;;;;;;;;;;;;;5093827;28;19908;-69
2023/01/03 11:43:43;;;;;;;;;;;;;;;;;;5093491;28;19908;-69
2023/01/03 11:46:09;;;;;;;;;;;;;;;;;;5093756;28;19908;-69
2023/01/03 11:48:35;;;;;;;;;;;;;;;;;;5093368;28;19930;-69
2023/01/03 11:51:01;;;;;;;;;;;;;;;;;;5093664;28;19978;-68
2023/01/03 11:53:27;;;;;;;;;;;;;;;;;;5093830;28;19908;-69
2023/01/03 11:55:53;;;;;;;;;;;;;;;;;;5094643;28;20007;-68
2023/01/03 11:58:19;;;;;;;;;;;;;;;;;;5097763;28;19961;-69
2023/01/03 12:00:45;;;;;;;;;;;;;;;;;;5096526;28;20003;-69
2023/01/03 12:03:11;;;;;;;;;;;;;;;;;;5097314;28;20007;-69
2023/01/03 12:05:37;;;;;;;;;;;;;;;;;;5096731;28;20317;-69
2023/01/03 12:08:03;;;;;;;;;;;;;;;;;;5097711;28;19912;-70
2023/01/03 12:10:29;;;;;;;;;;;;;;;;;;5097130;28;19908;-69
2023/01/03 12:12:55;;;;;;;;;;;;;;;;;;5096292;28;19915;-69
2023/01/03 12:15:21;;;;;;;;;;;;;;;;;;5096347;28;19916;-68
2023/01/03 12:17:47;;;;;;;;;;;;;;;;;;5097107;28;19984;-69
2023/01/03 12:20:13;;;;;;;;;;;;;;;;;;5097416;28;19961;-68
2023/01/03 12:22:39;;;;;;;;;;;;;;;;;;5097317;28;19953;-68
2023/01/03 12:25:05;;;;;;;;;;;;;;;;;;5095537;28;19916;-68
2023/01/03 12:27:31;;;;;;;;;;;;;;;;;;5097324;28;19934;-68
2023/01/03 12:29:57;;;;;;;;;;;;;;;;;;5095945;28;20007;-68
2023/01/03 12:32:23;;;;;;;;;;;;;;;;;;5096725;28;19912;-68
2023/01/03 12:34:49;;;;;;;;;;;;;;;;;;5097052;28;20264;-68
2023/01/03 12:37:15;;;;;;;;;;;;;;;;;;5097102;28;20272;-69
2023/01/03 12:39:41;;;;;;;;;;;;;;;;;;5096675;28;20337;-68
2023/01/03 12:42:07;;;;;;;;;;;;;;;;;;5097469;28;19912;-68
2023/01/03 12:44:33;;;;;;;;;;;;;;;;;;5096930;28;19908;-68
2023/01/03 12:46:59;;;;;;;;;;;;;;;;;;5095244;28;19915;-68
2023/01/03 12:49:25;;;;;;;;;;;;;;;;;;5097042;28;20383;-68
2023/01/03 12:51:51;;;;;;;;;;;;;;;;;;5095054;28;20368;-68
2023/01/03 12:54:17;;;;;;;;;;;;;;;;;;5095401;28;19908;-68
2023/01/03 12:56:43;;;;;;;;;;;;;;;;;;5096760;28;19944;-68
2023/01/03 12:59:09;;;;;;;;;;;;;;;;;;5095038;28;19908;-68
2023/01/03 13:01:35;;;;;;;;;;;;;;;;;;5096637;28;19915;-67
2023/01/03 13:04:01;;;;;;;;;;;;;;;;;;5096532;28;19912;-67
2023/01/03 13:06:27;;;;;;;;;;;;;;;;;;5094892;28;19999;-68
2023/01/03 13:08:53;;;;;;;;;;;;;;;;;;5095239;28;19915;-69
2023/01/03 13:11:19;;;;;;;;;;;;;;;;;;5096417;28;19909;-69
2023/01/03 13:13:45;;;;;;;;;;;;;;;;;;5096009;28;20385;-68
2023/01/03 13:16:10;;;;;;;;;;;;;;;;;;5096418;28;19924;-69
2023/01/03 13:18:36;;;;;;;;;;;;;;;;;;5096220;28;19913;-68
2023/01/03 13:21:02;;;;;;;;;;;;;;;;;;5095951;28;19908;-68
2023/01/03 13:23:28;;;;;;;;;;;;;;;;;;5096140;28;19912;-68
2023/01/03 13:25:54;;;;;;;;;;;;;;;;;;5094762;28;20389;-69
2023/01/03 13:28:20;;;;;;;;;;;;;;;;;;5095646;28;20274;-69
2023/01/03 13:30:46;;;;;;;;;;;;;;;;;;5096013;28;20395;-68
2023/01/03 13:33:15;;;;;;;;;;;;;;;;;;5095953;28;20288;-68
2023/01/03 13:35:41;;;;;;;;;;;;;;;;;;5095624;28;19920;-68
2023/01/03 13:38:07;;;;;;;;;;;;;;;;;;5095909;28;20002;-69
2023/01/03 13:40:33;;;;;;;;;;;;;;;;;;5096036;28;19922;-69
2023/01/03 13:42:59;;;;;;;;;;;;;;;;;;5095377;28;19912;-68
2023/01/03 13:45:25;;;;;;;;;;;;;;;;;;5095839;28;19908;-69
2023/01/03 13:47:51;;;;;;;;;;;;;;;;;;5094435;28;19908;-69
2023/01/03 13:50:17;;;;;;;;;;;;;;;;;;5095304;28;19954;-69
2023/01/03 13:52:43;;;;;;;;;;;;;;;;;;5095474;28;19920;-69
2023/01/03 13:55:09;;;;;;;;;;;;;;;;;;5095159;28;19946;-69
2023/01/03 13:57:35;;;;;;;;;;;;;;;;;;5094203;28;19958;-69
2023/01/03 14:00:01;;;;;;;;;;;;;;;;;;5095500;28;19908;-69
2023/01/03 14:02:27;;;;;;;;;;;;;;;;;;5095024;28;20006;-69
2023/01/03 14:04:53;;;;;;;;;;;;;;;;;;5095383;28;19961;-69
2023/01/03 14:07:19;;;;;;;;;;;;;;;;;;5095353;28;19908;-69
2023/01/03 14:09:45;;;;;;;;;;;;;;;;;;5095187;28;20360;-68
2023/01/03 14:12:11;;;;;;;;;;;;;;;;;;5093975;28;19953;-68
2023/01/03 14:14:36;;;;;;;;;;;;;;;;;;5095059;28;19912;-67
2023/01/03 14:17:02;;;;;;;;;;;;;;;;;;5093249;28;19977;-67
2023/01/03 14:19:31;;;;;;;;;;;;;;;;;;5093446;28;19908;-69
2023/01/03 14:21:56;;;;;;;;;;;;;;;;;;5095067;28;19908;-68
2023/01/03 14:24:22;;;;;;;;;;;;;;;;;;5093298;28;20433;-68
2023/01/03 14:26:48;;;;;;;;;;;;;;;;;;5094844;28;20380;-68
2023/01/03 14:29:14;;;;;;;;;;;;;;;;;;5094920;28;20004;-68
2023/01/03 14:31:40;;;;;;;;;;;;;;;;;;5094472;28;20025;-68
2023/01/03 14:34:10;;;;;;;;;;;;;;;;;;5093423;28;19916;-68
2023/01/03 14:36:36;;;;;;;;;;;;;;;;;;5093446;28;19912;-68
2023/01/03 14:39:02;;;;;;;;;;;;;;;;;;5094326;28;19915;-67
2023/01/03 14:41:28;;;;;;;;;;;;;;;;;;5094638;28;20007;-68
2023/01/03 14:43:53;;;;;;;;;;;;;;;;;;5094605;28;19953;-68
2023/01/03 14:46:19;;;;;;;;;;;;;;;;;;5094151;28;19912;-68
2023/01/03 14:48:46;;;;;;;;;;;;;;;;;;5094541;28;19908;-67
2023/01/03 14:51:12;;;;;;;;;;;;;;;;;;5094281;28;19915;-68
2023/01/03 14:53:38;;;;;;;;;;;;;;;;;;5093977;28;20298;-68
2023/01/03 14:56:05;;;;;;;;;;;;;;;;;;5094386;28;19920;-68
2023/01/03 14:58:33;;;;;;;;;;;;;;;;;;5093136;28;20213;-68
2023/01/03 15:00:59;;;;;;;;;;;;;;;;;;5094526;28;19951;-70
2023/01/03 15:03:25;;;;;;;;;;;;;;;;;;5093032;28;19904;-69
2023/01/03 15:05:51;;;;;;;;;;;;;;;;;;5093867;28;19908;-70
2023/01/03 15:08:17;;;;;;;;;;;;;;;;;;5094659;28;19904;-68
2023/01/03 15:10:43;;;;;;;;;;;;;;;;;;5092977;28;19908;-69
2023/01/03 15:13:09;;;;;;;;;;;;;;;;;;5093931;28;20006;-68
2023/01/03 15:15:35;;;;;;;;;;;;;;;;;;5092814;28;20006;-68
2023/01/03 15:18:01;;;;;;;;;;;;;;;;;;5092780;28;19908;-68
2023/01/03 15:20:27;;;;;;;;;;;;;;;;;;5092406;28;19916;-68
2023/01/03 15:22:53;;;;;;;;;;;;;;;;;;5092654;28;19908;-68
2023/01/03 15:25:19;;;;;;;;;;;;;;;;;;5094000;28;20288;-69
2023/01/03 15:27:45;;;;;;;;;;;;;;;;;;5093645;28;20394;-69
2023/01/03 15:30:11;;;;;;;;;;;;;;;;;;5093551;28;19908;-69
2023/01/03 15:32:37;;;;;;;;;;;;;;;;;;5093929;28;19908;-69
2023/01/03 15:35:02;;;;;;;;;;;;;;;;;;5093421;28;19963;-69
2023/01/03 15:37:28;;;;;;;;;;;;;;;;;;5093828;28;19912;-68
2023/01/03 15:39:54;;;;;;;;;;;;;;;;;;5092595;28;19930;-68
2023/01/03 15:45:05;;;;;;;;;;;;;;;;;;5093995;28;20007;-69
2023/01/03 15:47:31;;;;;;;;;;;;;;;;;;5092519;28;19940;-69
2023/01/03 15:49:57;;;;;;;;;;;;;;;;;;5093424;28;19908;-68
2023/01/03 15:52:23;;;;;;;;;;;;;;;;;;5093713;28;20387;-69
2023/01/03 15:54:49;;;;;;;;;;;;;;;;;;5093272;28;20322;-70
2023/01/03 15:57:16;;;;;;;;;;;;;;;;;;5094322;28;20420;-68
2023/01/03 15:59:42;;;;;;;;;;;;;;;;;;5093726;28;19908;-68
2023/01/03 16:02:08;;;;;;;;;;;;;;;;;;5093164;28;19999;-69
2023/01/03 16:04:34;;;;;;;;;;;;;;;;;;5092471;28;19909;-70
2023/01/03 16:07:00;;;;;;;;;;;;;;;;;;5093700;28;19912;-69
2023/01/03 16:09:26;;;;;;;;;;;;;;;;;;5093492;28;19947;-69
2023/01/03 16:11:52;;;;;;;;;;;;;;;;;;5093601;28;19916;-69
2023/01/03 16:14:17;;;;;;;;;;;;;;;;;;5092227;28;19908;-69
2023/01/03 16:16:43;;;;;;;;;;;;;;;;;;5093324;28;19912;-69
2023/01/03 16:19:10;;;;;;;;;;;;;;;;;;5092268;28;19915;-69
2023/01/03 16:21:36;;;;;;;;;;;;;;;;;;5093580;28;19908;-69
2023/01/03 16:24:03;;;;;;;;;;;;;;;;;;5091838;28;19914;-69
2023/01/03 16:26:29;;;;;;;;;;;;;;;;;;5093403;28;19908;-69
2023/01/03 16:28:55;;;;;;;;;;;;;;;;;;5092589;28;20284;-70
2023/01/03 16:31:21;;;;;;;;;;;;;;;;;;5091773;28;19954;-69
2023/01/03 16:33:47;;;;;;;;;;;;;;;;;;5093444;28;19934;-69
2023/01/03 16:36:13;;;;;;;;;;;;;;;;;;5093364;28;19922;-68
2023/01/03 16:38:39;;;;;;;;;;;;;;;;;;5092982;28;19912;-68
2023/01/03 16:41:05;;;;;;;;;;;;;;;;;;5093247;28;19973;-68
2023/01/03 16:43:31;;;;;;;;;;;;;;;;;;5095761;28;20284;-70
2023/01/03 16:45:57;;;;;;;;;;;;;;;;;;5096603;28;20360;-68
2023/01/03 16:48:23;;;;;;;;;;;;;;;;;;5095711;28;20375;-69
2023/01/03 16:50:49;;;;;;;;;;;;;;;;;;5095436;28;20445;-68
2023/01/03 16:53:14;;;;;;;;;;;;;;;;;;5096444;28;19916;-68
2023/01/03 16:55:40;;;;;;;;;;;;;;;;;;5096886;28;19920;-70
2023/01/03 16:58:07;;;;;;;;;;;;;;;;;;5096568;28;19915;-69
2023/01/03 17:00:33;;;;;;;;;;;;;;;;;;5096956;28;20353;-69
2023/01/03 17:02:59;;;;;;;;;;;;;;;;;;5096575;28;19912;-70
2023/01/03 17:05:25;;;;;;;;;;;;;;;;;;5094863;28;19958;-69
2023/01/03 17:07:51;;;;;;;;;;;;;;;;;;5096534;28;19953;-69
2023/01/03 17:10:17;;;;;;;;;;;;;;;;;;5096476;28;19939;-70
2023/01/03 17:12:43;;;;;;;;;;;;;;;;;;5094759;28;19915;-68
2023/01/03 17:15:08;;;;;;;;;;;;;;;;;;5096304;28;19962;-68
2023/01/03 17:17:34;;;;;;;;;;;;;;;;;;5096300;28;19953;-70
2023/01/03 17:20:00;;;;;;;;;;;;;;;;;;5094558;28;19908;-70
2023/01/03 17:22:26;;;;;;;;;;;;;;;;;;5094951;28;19908;-68
2023/01/03 17:24:52;;;;;;;;;;;;;;;;;;5096312;28;19921;-69
2023/01/03 17:27:18;;;;;;;;;;;;;;;;;;5094539;28;19912;-69
2023/01/03 17:29:44;;;;;;;;;;;;;;;;;;5096156;28;20007;-68
2023/01/03 17:32:10;;;;;;;;;;;;;;;;;;5096213;28;19943;-70
2023/01/03 17:34:36;;;;;;;;;;;;;;;;;;5094344;28;19912;-69
2023/01/03 17:37:02;;;;;;;;;;;;;;;;;;5096301;28;19912;-68
2023/01/03 17:39:28;;;;;;;;;;;;;;;;;;5096088;28;20014;-68
2023/01/03 17:42:12;;;;;;;;;;;;;;;;;;5095472;28;19915;-69
2023/01/03 17:44:38;;;;;;;;;;;;;;;;;;5095804;28;20002;-69
2023/01/03 17:49:48;;;;;;;;;;;;;;;;;;5095706;28;19919;-69